createdAt,value
2023-02-16T00:00:38.095Z,98.90
2023-02-16T00:03:45.775Z,99.01
2023-02-16T00:06:53.526Z,99.22
2023-02-16T00:10:00.543Z,99.43
2023-02-16T00:13:08.273Z,99.53
2023-02-16T00:16:15.561Z,99.53
2023-02-16T00:19:22.536Z,99.53
2023-02-16T00:22:30.122Z,99.74
2023-02-16T00:25:37.325Z,99.74
2023-02-16T00:28:44.984Z,99.74
2023-02-16T00:31:52.677Z,99.74
2023-02-16T00:34:59.821Z,99.84
2023-02-16T00:38:07.440Z,99.99
2023-02-16T00:41:14.691Z,99.99
2023-02-16T00:44:22.199Z,99.99
2023-02-16T00:47:29.220Z,99.99
2023-02-16T00:50:36.510Z,99.96
2023-02-16T00:53:43.782Z,99.75
2023-02-16T00:56:51.041Z,99.59
2023-02-16T00:59:58.724Z,99.48
2023-02-16T01:03:06.011Z,99.48
2023-02-16T01:06:13.303Z,99.43
2023-02-16T01:09:21.012Z,99.53
2023-02-16T01:12:27.916Z,99.53
2023-02-16T01:15:35.839Z,99.74
2023-02-16T01:18:43.388Z,99.63
2023-02-16T01:21:50.460Z,99.53
2023-02-16T01:24:57.692Z,99.63
2023-02-16T01:28:05.434Z,99.63
2023-02-16T01:31:12.798Z,99.68
2023-02-16T01:34:20.780Z,99.68
2023-02-16T01:37:28.391Z,99.68
2023-02-16T01:40:36.163Z,99.89
2023-02-16T01:43:44.192Z,99.89
2023-02-16T01:46:51.980Z,99.99
2023-02-16T01:50:02.132Z,99.99
2023-02-16T01:53:00.099Z,99.99
2023-02-16T01:56:07.765Z,99.99
2023-02-16T01:59:15.368Z,99.69
2023-02-16T02:02:23.313Z,99.69
2023-02-16T02:05:30.947Z,99.80
2023-02-16T02:08:39.191Z,99.59
2023-02-16T02:11:47.087Z,99.59
2023-02-16T02:14:55.606Z,99.48
2023-02-16T02:18:02.919Z,99.69
2023-02-16T02:21:11.137Z,99.63
2023-02-16T02:24:19.308Z,99.84
2023-02-16T02:27:26.646Z,99.95
2023-02-16T02:30:34.880Z,99.95
2023-02-16T02:33:42.692Z,99.99
2023-02-16T02:36:50.409Z,99.99
2023-02-16T02:39:58.629Z,99.95
2023-02-16T02:43:06.227Z,99.84
2023-02-16T02:46:13.903Z,99.84
2023-02-16T02:49:21.581Z,99.79
2023-02-16T02:52:29.241Z,99.89
2023-02-16T02:55:36.801Z,99.89
2023-02-16T02:58:44.490Z,99.79
2023-02-16T03:01:52.376Z,99.83
2023-02-16T03:04:59.700Z,99.93
2023-02-16T03:08:07.774Z,99.93
2023-02-16T03:11:15.825Z,99.93
2023-02-16T03:14:23.108Z,99.99
2023-02-16T03:17:31.184Z,99.99
2023-02-16T03:20:38.849Z,99.99
2023-02-16T03:23:46.583Z,99.99
2023-02-16T03:26:54.603Z,99.99
2023-02-16T03:30:02.353Z,99.99
2023-02-16T03:33:10.244Z,99.99
2023-02-16T03:36:18.015Z,99.99
2023-02-16T03:39:26.107Z,99.99
2023-02-16T03:42:33.633Z,99.99
2023-02-16T03:45:41.403Z,99.99
2023-02-16T03:48:49.389Z,99.99
2023-02-16T03:51:56.714Z,99.99
2023-02-16T03:55:04.298Z,99.99
2023-02-16T03:58:12.254Z,99.99
2023-02-16T04:01:19.581Z,99.99
2023-02-16T04:04:27.626Z,99.99
2023-02-16T04:07:35.678Z,99.99
2023-02-16T04:10:43.196Z,99.99
2023-02-16T04:13:51.344Z,99.99
2023-02-16T04:16:59.361Z,99.99
2023-02-16T04:20:06.701Z,99.99
2023-02-16T04:23:14.758Z,99.99
2023-02-16T04:26:22.497Z,99.99
2023-02-16T04:29:30.149Z,99.99
2023-02-16T04:32:38.111Z,99.99
2023-02-16T04:35:45.825Z,99.99
2023-02-16T04:38:53.779Z,99.99
2023-02-16T04:42:01.839Z,99.99
2023-02-16T04:45:09.448Z,99.99
2023-02-16T04:48:17.214Z,99.99
2023-02-16T04:51:24.994Z,99.99
2023-02-16T04:54:33.066Z,99.99
2023-02-16T04:57:40.854Z,99.99
2023-02-16T05:00:48.850Z,99.99
2023-02-16T05:03:57.212Z,99.99
2023-02-16T05:07:05.100Z,99.99
2023-02-16T05:10:12.677Z,99.99
2023-02-16T05:13:20.941Z,99.99
2023-02-16T05:16:28.651Z,99.99
2023-02-16T05:19:36.361Z,99.99
2023-02-16T05:22:44.404Z,99.99
2023-02-16T05:25:51.886Z,99.99
2023-02-16T05:28:59.731Z,99.99
2023-02-16T05:32:07.890Z,99.99
2023-02-16T05:35:16.134Z,99.99
2023-02-16T05:38:23.782Z,99.99
2023-02-16T05:41:31.163Z,99.99
2023-02-16T05:44:38.901Z,99.99
2023-02-16T05:47:47.356Z,99.99
2023-02-16T05:50:55.113Z,99.99
2023-02-16T05:54:03.040Z,99.99
2023-02-16T05:57:10.943Z,99.99
2023-02-16T06:00:18.593Z,99.99
2023-02-16T06:03:26.467Z,99.99
2023-02-16T06:06:34.212Z,99.99
2023-02-16T06:09:42.461Z,99.99
2023-02-16T06:12:50.285Z,99.99
2023-02-16T06:15:58.059Z,99.99
2023-02-16T06:19:06.266Z,99.99
2023-02-16T06:22:13.922Z,99.99
2023-02-16T06:25:21.958Z,99.99
2023-02-16T06:28:30.189Z,99.99
2023-02-16T06:31:38.118Z,99.99
2023-02-16T06:34:46.444Z,99.99
2023-02-16T06:37:54.551Z,99.99
2023-02-16T06:41:02.387Z,99.99
2023-02-16T06:44:10.689Z,99.99
2023-02-16T06:47:18.399Z,99.99
2023-02-16T06:50:26.147Z,99.99
2023-02-16T06:53:34.168Z,99.99
2023-02-16T06:56:41.811Z,99.99
2023-02-16T06:59:49.543Z,99.99
2023-02-16T07:02:57.638Z,99.99
2023-02-16T07:06:05.230Z,99.99
2023-02-16T07:09:13.487Z,99.99
2023-02-16T07:12:21.485Z,99.99
2023-02-16T07:15:28.721Z,99.99
2023-02-16T07:18:36.914Z,99.99
2023-02-16T07:21:45.103Z,99.99
2023-02-16T07:24:52.408Z,99.99
2023-02-16T07:28:00.757Z,99.99
2023-02-16T07:31:09.110Z,99.99
2023-02-16T07:34:16.472Z,99.99
2023-02-16T07:37:24.740Z,99.99
2023-02-16T07:40:32.380Z,99.99
2023-02-16T07:43:39.976Z,99.99
2023-02-16T07:46:48.123Z,99.99
2023-02-16T07:49:55.949Z,99.99
2023-02-16T07:53:03.600Z,99.99
2023-02-16T07:56:11.519Z,99.99
2023-02-16T07:59:19.158Z,99.99
2023-02-16T08:02:26.852Z,99.99
2023-02-16T08:05:34.401Z,99.99
2023-02-16T08:08:42.378Z,99.63
2023-02-16T08:11:50.370Z,98.69
2023-02-16T08:14:57.660Z,97.30
2023-02-16T08:18:05.606Z,96.31
2023-02-16T08:21:13.376Z,95.79
2023-02-16T08:24:20.836Z,95.23
2023-02-16T08:27:28.962Z,93.74
2023-02-16T08:30:37.232Z,92.69
2023-02-16T08:33:45.253Z,91.72
2023-02-16T08:36:53.254Z,90.85
2023-02-16T08:40:00.837Z,89.46
2023-02-16T08:43:08.826Z,88.90
2023-02-16T08:46:17.323Z,88.48
2023-02-16T08:49:25.191Z,87.51
2023-02-16T08:52:32.970Z,87.82
2023-02-16T08:55:40.564Z,88.03
2023-02-16T08:58:48.759Z,87.72
2023-02-16T09:01:56.793Z,87.68
2023-02-16T09:05:04.635Z,87.33
2023-02-16T09:08:13.107Z,86.29
2023-02-16T09:11:21.074Z,85.02
2023-02-16T09:14:29.130Z,83.84
2023-02-16T09:17:36.976Z,83.53
2023-02-16T09:20:46.859Z,83.28
2023-02-16T09:23:54.882Z,83.07
2023-02-16T09:27:02.986Z,82.25
2023-02-16T09:30:10.841Z,82.25
2023-02-16T09:33:19.434Z,81.49
2023-02-16T09:36:27.499Z,81.70
2023-02-16T09:39:34.900Z,81.07
2023-02-16T09:42:43.132Z,80.93
2023-02-16T09:45:51.639Z,81.24
2023-02-16T09:48:59.485Z,80.79
2023-02-16T09:52:07.215Z,81.82
2023-02-16T09:55:14.837Z,81.62
2023-02-16T09:58:23.149Z,81.48
2023-02-16T10:01:30.628Z,82.10
2023-02-16T10:04:38.317Z,81.44
2023-02-16T10:07:46.430Z,80.62
2023-02-16T10:10:54.081Z,79.82
2023-02-16T10:14:02.230Z,79.20
2023-02-16T10:17:10.185Z,79.06
2023-02-16T10:20:17.728Z,78.51
2023-02-16T10:23:25.882Z,78.41
2023-02-16T10:26:33.372Z,76.21
2023-02-16T10:29:41.282Z,76.38
2023-02-16T10:32:49.646Z,76.48
2023-02-16T10:35:57.448Z,76.65
2023-02-16T10:39:05.468Z,76.14
2023-02-16T10:42:13.772Z,76.31
2023-02-16T10:45:21.654Z,75.04
2023-02-16T10:48:29.588Z,74.43
2023-02-16T10:51:37.433Z,74.29
2023-02-16T10:54:45.684Z,73.68
2023-02-16T10:57:52.947Z,73.78
2023-02-16T11:01:01.126Z,73.27
2023-02-16T11:04:09.230Z,72.65
2023-02-16T11:07:16.654Z,72.14
2023-02-16T11:10:24.699Z,73.68
2023-02-16T11:13:32.629Z,74.43
2023-02-16T11:16:40.010Z,72.99
2023-02-16T11:19:48.289Z,72.99
2023-02-16T11:22:56.226Z,73.50
2023-02-16T11:26:04.171Z,74.36
2023-02-16T11:29:12.494Z,75.45
2023-02-16T11:32:20.300Z,75.35
2023-02-16T11:35:28.116Z,75.15
2023-02-16T11:38:35.560Z,74.63
2023-02-16T11:41:44.019Z,74.94
2023-02-16T11:44:51.773Z,75.87
2023-02-16T11:47:59.348Z,75.66
2023-02-16T11:51:07.748Z,74.84
2023-02-16T11:54:15.742Z,75.15
2023-02-16T11:57:23.354Z,74.84
2023-02-16T12:00:31.587Z,74.02
2023-02-16T12:03:39.416Z,73.81
2023-02-16T12:06:47.252Z,72.99
2023-02-16T12:09:55.567Z,73.85
2023-02-16T12:13:03.206Z,73.13
2023-02-16T12:16:11.551Z,73.47
2023-02-16T12:19:19.813Z,74.19
2023-02-16T12:22:27.972Z,74.29
2023-02-16T12:25:35.621Z,75.01
2023-02-16T12:28:43.779Z,74.29
2023-02-16T12:31:52.243Z,74.70
2023-02-16T12:34:59.971Z,73.88
2023-02-16T12:38:07.619Z,74.91
2023-02-16T12:41:16.005Z,74.91
2023-02-16T12:44:25.509Z,75.32
2023-02-16T12:47:34.111Z,75.01
2023-02-16T12:50:42.459Z,74.91
2023-02-16T12:53:49.813Z,75.32
2023-02-16T12:56:57.608Z,75.80
2023-02-16T13:00:04.878Z,76.10
2023-02-16T13:03:13.415Z,76.10
2023-02-16T13:06:21.871Z,76.62
2023-02-16T13:09:29.689Z,76.93
2023-02-16T13:12:38.038Z,77.13
2023-02-16T13:15:45.675Z,74.87
2023-02-16T13:18:53.985Z,75.18
2023-02-16T13:22:01.817Z,74.91
2023-02-16T13:25:09.513Z,75.52
2023-02-16T13:28:17.737Z,76.25
2023-02-16T13:31:25.575Z,76.86
2023-02-16T13:34:33.372Z,77.27
2023-02-16T13:37:41.078Z,76.86
2023-02-16T13:40:48.504Z,76.14
2023-02-16T13:43:56.420Z,77.23
2023-02-16T13:47:04.264Z,76.31
2023-02-16T13:50:11.992Z,76.04
2023-02-16T13:53:19.809Z,75.73
2023-02-16T13:56:27.206Z,76.14
2023-02-16T13:59:35.613Z,76.62
2023-02-16T14:02:43.524Z,76.62
2023-02-16T14:05:51.167Z,77.95
2023-02-16T14:08:59.227Z,76.51
2023-02-16T14:12:07.289Z,76.93
2023-02-16T14:15:14.748Z,77.03
2023-02-16T14:18:22.831Z,77.23
2023-02-16T14:21:31.068Z,77.44
2023-02-16T14:24:38.525Z,78.61
2023-02-16T14:27:46.421Z,77.68
2023-02-16T14:30:54.133Z,78.30
2023-02-16T14:34:02.025Z,77.78
2023-02-16T14:37:09.703Z,79.12
2023-02-16T14:40:17.361Z,80.97
2023-02-16T14:43:25.187Z,79.63
2023-02-16T14:46:32.705Z,79.22
2023-02-16T14:49:41.052Z,79.33
2023-02-16T14:52:48.442Z,79.53
2023-02-16T14:55:56.425Z,79.63
2023-02-16T14:59:04.656Z,79.98
2023-02-16T15:02:11.957Z,80.39
2023-02-16T15:05:19.858Z,80.19
2023-02-16T15:08:27.759Z,80.39
2023-02-16T15:11:35.190Z,79.88
2023-02-16T15:14:43.398Z,80.49
2023-02-16T15:17:51.020Z,80.70
2023-02-16T15:20:58.939Z,80.74
2023-02-16T15:24:07.203Z,80.63
2023-02-16T15:27:14.952Z,79.91
2023-02-16T15:30:23.163Z,80.12
2023-02-16T15:33:30.825Z,79.30
2023-02-16T15:36:38.843Z,79.50
2023-02-16T15:40:06.136Z,79.81
2023-02-16T15:42:51.593Z,78.68
2023-02-16T15:45:59.554Z,78.23
2023-02-16T15:49:07.150Z,79.26
2023-02-16T15:52:14.590Z,78.85
2023-02-16T15:55:22.586Z,79.05
2023-02-16T15:58:31.076Z,79.47
2023-02-16T16:01:40.019Z,79.91
2023-02-16T16:04:48.199Z,81.25
2023-02-16T16:07:55.983Z,83.11
2023-02-16T16:11:03.941Z,82.73
2023-02-16T16:14:11.800Z,83.25
2023-02-16T16:17:19.595Z,83.35
2023-02-16T16:20:27.197Z,83.45
2023-02-16T16:23:34.750Z,83.97
2023-02-16T16:26:42.630Z,84.07
2023-02-16T16:29:50.410Z,83.70
2023-02-16T16:32:58.368Z,83.39
2023-02-16T16:36:06.491Z,83.59
2023-02-16T16:39:14.114Z,83.70
2023-02-16T16:42:22.371Z,83.70
2023-02-16T16:45:30.809Z,83.80
2023-02-16T16:48:38.180Z,84.00
2023-02-16T16:51:46.249Z,84.00
2023-02-16T16:54:53.993Z,84.52
2023-02-16T16:58:01.582Z,84.93
2023-02-16T17:01:09.343Z,85.49
2023-02-16T17:04:17.234Z,85.79
2023-02-16T17:07:24.889Z,86.21
2023-02-16T17:10:32.703Z,86.31
2023-02-16T17:13:40.998Z,86.21
2023-02-16T17:16:48.686Z,86.00
2023-02-16T17:19:56.269Z,86.82
2023-02-16T17:23:04.406Z,86.93
2023-02-16T17:26:12.248Z,86.31
2023-02-16T17:29:19.818Z,86.10
2023-02-16T17:32:28.138Z,86.72
2023-02-16T17:35:35.481Z,86.52
2023-02-16T17:38:43.391Z,85.79
2023-02-16T17:41:51.513Z,85.69
2023-02-16T17:44:58.928Z,85.69
2023-02-16T17:48:07.106Z,85.59
2023-02-16T17:51:15.211Z,85.38
2023-02-16T17:54:22.558Z,85.34
2023-02-16T17:57:30.676Z,85.14
2023-02-16T18:00:38.512Z,85.03
2023-02-16T18:03:46.323Z,85.14
2023-02-16T18:06:54.539Z,84.93
2023-02-16T18:10:02.365Z,85.24
2023-02-16T18:13:10.288Z,85.34
2023-02-16T18:16:18.537Z,85.44
2023-02-16T18:19:26.239Z,85.55
2023-02-16T18:22:33.934Z,85.86
2023-02-16T18:25:42.199Z,85.65
2023-02-16T18:28:49.814Z,85.86
2023-02-16T18:31:57.625Z,86.06
2023-02-16T18:35:05.309Z,86.06
2023-02-16T18:38:13.516Z,86.52
2023-02-16T18:41:21.491Z,86.72
2023-02-16T18:44:28.919Z,87.03
2023-02-16T18:47:36.664Z,87.24
2023-02-16T18:50:44.040Z,87.59
2023-02-16T18:53:51.758Z,87.99
2023-02-16T18:56:59.926Z,88.20
2023-02-16T19:00:07.539Z,88.62
2023-02-16T19:03:14.925Z,88.92
2023-02-16T19:06:23.067Z,89.23
2023-02-16T19:09:30.574Z,89.34
2023-02-16T19:12:38.244Z,89.54
2023-02-16T19:15:46.114Z,89.65
2023-02-16T19:18:53.389Z,89.75
2023-02-16T19:22:01.634Z,90.00
2023-02-16T19:25:09.271Z,90.20
2023-02-16T19:28:16.827Z,90.20
2023-02-16T19:31:25.133Z,90.51
2023-02-16T19:34:32.466Z,90.61
2023-02-16T19:37:40.053Z,90.82
2023-02-16T19:40:47.455Z,90.82
2023-02-16T19:43:56.072Z,90.92
2023-02-16T19:47:03.719Z,90.92
2023-02-16T19:50:12.600Z,90.99
2023-02-16T19:53:20.870Z,90.99
2023-02-16T19:56:28.980Z,91.19
2023-02-16T19:59:37.815Z,91.30
2023-02-16T20:02:46.536Z,91.40
2023-02-16T20:05:53.941Z,91.40
2023-02-16T20:09:02.321Z,91.50
2023-02-16T20:12:10.149Z,91.50
2023-02-16T20:15:18.183Z,91.60
2023-02-16T20:18:26.101Z,91.40
2023-02-16T20:21:33.616Z,91.60
2023-02-16T20:24:41.781Z,91.50
2023-02-16T20:27:49.519Z,91.50
2023-02-16T20:30:57.120Z,91.81
2023-02-16T20:34:04.779Z,92.22
2023-02-16T20:37:12.480Z,92.53
2023-02-16T20:40:20.233Z,92.63
2023-02-16T20:43:27.974Z,92.63
2023-02-16T20:46:35.420Z,92.84
2023-02-16T20:49:43.554Z,92.84
2023-02-16T20:52:51.182Z,92.84
2023-02-16T20:55:59.161Z,92.94
2023-02-16T20:59:08.235Z,93.05
2023-02-16T21:02:16.247Z,93.05
2023-02-16T21:05:23.565Z,92.74
2023-02-16T21:08:31.756Z,92.84
2023-02-16T21:11:39.564Z,92.63
2023-02-16T21:14:47.317Z,92.63
2023-02-16T21:17:55.523Z,92.53
2023-02-16T21:21:03.135Z,92.38
2023-02-16T21:24:10.854Z,92.29
2023-02-16T21:27:18.512Z,92.18
2023-02-16T21:30:26.194Z,91.97
2023-02-16T21:33:33.832Z,91.77
2023-02-16T21:36:41.504Z,91.77
2023-02-16T21:39:49.148Z,91.66
2023-02-16T21:42:56.937Z,91.36
2023-02-16T21:46:04.550Z,91.15
2023-02-16T21:49:12.903Z,91.11
2023-02-16T21:52:20.768Z,91.21
2023-02-16T21:55:28.198Z,91.31
2023-02-16T21:58:36.303Z,91.00
2023-02-16T22:01:44.155Z,90.49
2023-02-16T22:04:51.766Z,90.49
2023-02-16T22:07:59.704Z,90.39
2023-02-16T22:11:06.985Z,90.18
2023-02-16T22:14:15.148Z,90.08
2023-02-16T22:17:23.185Z,90.08
2023-02-16T22:20:30.684Z,90.08
2023-02-16T22:23:38.377Z,90.69
2023-02-16T22:26:46.492Z,91.62
2023-02-16T22:29:54.246Z,92.44
2023-02-16T22:33:01.872Z,92.96
2023-02-16T22:36:09.848Z,92.96
2023-02-16T22:39:17.502Z,93.27
2023-02-16T22:42:25.376Z,93.62
2023-02-16T22:45:33.078Z,93.31
2023-02-16T22:48:41.771Z,92.96
2023-02-16T22:51:49.492Z,92.65
2023-02-16T22:54:57.111Z,92.55
2023-02-16T22:58:04.891Z,92.55
2023-02-16T23:01:12.269Z,92.34
2023-02-16T23:04:20.486Z,93.06
2023-02-16T23:07:28.621Z,93.58
2023-02-16T23:10:36.001Z,93.99
2023-02-16T23:13:44.305Z,93.99
2023-02-16T23:16:52.352Z,94.40
2023-02-16T23:19:59.680Z,94.60
2023-02-16T23:23:07.396Z,94.76
2023-02-16T23:26:15.247Z,95.17
2023-02-16T23:29:22.580Z,95.78
2023-02-16T23:32:30.500Z,96.20
2023-02-16T23:35:37.902Z,96.71
2023-02-16T23:38:45.476Z,97.02
2023-02-16T23:41:53.377Z,97.43
2023-02-16T23:45:00.925Z,97.68
2023-02-16T23:48:08.636Z,97.64
2023-02-16T23:51:16.577Z,97.53
2023-02-16T23:54:24.294Z,97.53
2023-02-16T23:57:31.832Z,97.53
